createdAt,value
2019-01-27T00:00:15.790Z,3.43
2019-01-27T00:02:42.419Z,2.43
2019-01-27T00:05:09.085Z,1.40
2019-01-27T00:07:35.682Z,1.80
2019-01-27T00:10:03.556Z,1.73
2019-01-27T00:12:30.093Z,1.80
2019-01-27T00:14:56.647Z,2.03
2019-01-27T00:17:23.208Z,1.80
2019-01-27T00:19:49.745Z,1.73
2019-01-27T00:22:16.311Z,2.07
2019-01-27T00:24:42.865Z,2.07
2019-01-27T00:27:09.422Z,2.40
2019-01-27T00:29:35.954Z,1.87
2019-01-27T00:32:02.715Z,1.70
2019-01-27T00:34:29.246Z,1.87
2019-01-27T00:36:55.831Z,1.50
2019-01-27T00:39:22.421Z,2.00
2019-01-27T00:41:49.051Z,1.50
2019-01-27T00:44:15.900Z,1.77
2019-01-27T00:46:42.478Z,1.77
2019-01-27T00:49:09.037Z,1.90
2019-01-27T00:51:35.726Z,1.60
2019-01-27T00:54:02.504Z,1.70
2019-01-27T00:56:29.120Z,1.77
2019-01-27T00:58:55.768Z,1.47
2019-01-27T01:01:22.608Z,1.50
2019-01-27T01:03:49.572Z,1.40
2019-01-27T01:06:16.171Z,1.63
2019-01-27T01:08:42.707Z,1.27
2019-01-27T01:11:09.251Z,1.73
2019-01-27T01:13:35.787Z,1.77
2019-01-27T01:16:02.743Z,1.50
2019-01-27T01:18:29.334Z,1.63
2019-01-27T01:20:56.002Z,1.50
2019-01-27T01:23:22.552Z,1.50
2019-01-27T01:25:49.083Z,1.57
2019-01-27T01:28:15.631Z,1.63
2019-01-27T01:30:42.167Z,1.60
2019-01-27T01:33:08.723Z,1.40
2019-01-27T01:35:35.296Z,1.43
2019-01-27T01:38:01.854Z,1.23
2019-01-27T01:40:28.394Z,1.57
2019-01-27T01:42:54.960Z,1.43
2019-01-27T01:45:25.387Z,1.10
2019-01-27T01:47:51.947Z,1.70
2019-01-27T01:50:18.523Z,1.43
2019-01-27T01:52:45.277Z,1.50
2019-01-27T01:55:12.752Z,1.50
2019-01-27T01:57:39.304Z,1.30
2019-01-27T02:00:10.756Z,1.40
2019-01-27T02:02:37.515Z,1.50
2019-01-27T02:05:05.004Z,1.30
2019-01-27T02:07:31.568Z,1.33
2019-01-27T02:09:58.116Z,1.90
2019-01-27T02:12:24.669Z,1.40
2019-01-27T02:14:51.215Z,1.20
2019-01-27T02:17:17.815Z,1.20
2019-01-27T02:19:44.447Z,1.20
2019-01-27T02:22:11.009Z,1.10
2019-01-27T02:24:37.552Z,1.23
2019-01-27T02:27:04.099Z,1.20
2019-01-27T02:29:30.642Z,1.27
2019-01-27T02:31:57.191Z,1.07
2019-01-27T02:34:23.787Z,1.10
2019-01-27T02:36:50.347Z,1.37
2019-01-27T02:39:16.896Z,1.37
2019-01-27T02:41:43.444Z,1.30
2019-01-27T02:44:10.105Z,0.93
2019-01-27T02:46:36.674Z,1.13
2019-01-27T02:49:03.236Z,0.90
2019-01-27T02:51:29.780Z,0.90
2019-01-27T02:53:56.332Z,1.20
2019-01-27T02:56:23.001Z,1.00
2019-01-27T02:58:49.612Z,1.10
2019-01-27T03:01:16.153Z,1.10
2019-01-27T03:03:42.712Z,0.83
2019-01-27T03:06:11.162Z,1.13
2019-01-27T03:08:38.015Z,1.07
2019-01-27T03:11:04.571Z,1.00
2019-01-27T03:13:31.161Z,1.30
2019-01-27T03:15:57.710Z,1.10
2019-01-27T03:18:24.263Z,1.17
2019-01-27T03:20:50.805Z,1.07
2019-01-27T03:23:17.336Z,1.03
2019-01-27T03:25:43.884Z,1.10
2019-01-27T03:28:10.424Z,1.00
2019-01-27T03:30:37.076Z,0.80
2019-01-27T03:33:03.609Z,1.00
2019-01-27T03:35:30.169Z,0.93
2019-01-27T03:37:56.732Z,1.00
2019-01-27T03:40:23.583Z,1.13
2019-01-27T03:42:50.159Z,1.07
2019-01-27T03:45:18.706Z,0.90
2019-01-27T03:47:45.247Z,1.20
2019-01-27T03:50:13.427Z,0.97
2019-01-27T03:52:40.056Z,1.00
2019-01-27T03:55:08.524Z,0.80
2019-01-27T03:57:35.068Z,1.20
2019-01-27T04:00:03.220Z,1.27
2019-01-27T04:02:29.801Z,1.20
2019-01-27T04:04:56.339Z,1.13
2019-01-27T04:07:22.895Z,0.87
2019-01-27T04:09:49.448Z,1.17
2019-01-27T04:12:16.004Z,1.10
2019-01-27T04:14:42.553Z,1.20
2019-01-27T04:17:09.088Z,0.90
2019-01-27T04:19:35.643Z,1.10
2019-01-27T04:22:02.189Z,1.00
2019-01-27T04:24:28.730Z,1.00
2019-01-27T04:26:55.280Z,1.10
2019-01-27T04:29:21.815Z,1.00
2019-01-27T04:31:48.383Z,0.90
2019-01-27T04:34:14.919Z,1.10
2019-01-27T04:36:41.477Z,0.97
2019-01-27T04:39:08.117Z,0.90
2019-01-27T04:41:34.753Z,1.00
2019-01-27T04:44:01.463Z,0.97
2019-01-27T04:46:28.165Z,1.00
2019-01-27T04:48:54.895Z,1.20
2019-01-27T04:51:21.600Z,1.40
2019-01-27T04:53:48.411Z,1.13
2019-01-27T04:56:15.129Z,1.57
2019-01-27T04:58:42.156Z,1.10
2019-01-27T05:01:08.908Z,1.00
2019-01-27T05:03:40.128Z,1.10
2019-01-27T05:06:07.304Z,1.20
2019-01-27T05:08:34.026Z,1.00
2019-01-27T05:11:00.768Z,1.00
2019-01-27T05:13:27.517Z,0.90
2019-01-27T05:15:54.252Z,1.20
2019-01-27T05:18:21.026Z,1.10
2019-01-27T05:20:47.774Z,1.10
2019-01-27T05:23:14.475Z,1.13
2019-01-27T05:25:41.168Z,1.30
2019-01-27T05:28:07.955Z,1.00
2019-01-27T05:30:34.587Z,1.00
2019-01-27T05:33:01.140Z,0.87
2019-01-27T05:35:27.689Z,1.20
2019-01-27T05:37:54.241Z,1.00
2019-01-27T05:40:21.189Z,1.07
2019-01-27T05:42:47.732Z,1.13
2019-01-27T05:45:17.869Z,1.10
2019-01-27T05:47:44.615Z,0.90
2019-01-27T05:50:12.251Z,0.90
2019-01-27T05:52:39.008Z,1.10
2019-01-27T05:55:06.948Z,0.90
2019-01-27T05:57:33.495Z,1.00
2019-01-27T06:00:00.040Z,1.13
2019-01-27T06:02:26.611Z,1.10
2019-01-27T06:04:53.151Z,1.10
2019-01-27T06:07:19.719Z,1.20
2019-01-27T06:09:46.252Z,1.20
2019-01-27T06:12:13.913Z,0.97
2019-01-27T06:14:40.452Z,1.10
2019-01-27T06:17:07.020Z,1.00
2019-01-27T06:19:33.564Z,1.00
2019-01-27T06:22:00.124Z,1.00
2019-01-27T06:24:26.673Z,1.17
2019-01-27T06:26:53.227Z,1.10
2019-01-27T06:29:19.782Z,0.90
2019-01-27T06:31:46.430Z,1.10
2019-01-27T06:34:13.164Z,0.90
2019-01-27T06:36:39.713Z,1.00
2019-01-27T06:39:06.247Z,1.13
2019-01-27T06:41:32.803Z,1.27
2019-01-27T06:43:59.352Z,0.90
2019-01-27T06:46:25.903Z,1.40
2019-01-27T06:48:52.444Z,1.43
2019-01-27T06:51:19.002Z,1.60
2019-01-27T06:53:45.552Z,1.10
2019-01-27T06:56:12.120Z,1.00
2019-01-27T06:58:57.021Z,0.80
2019-01-27T07:01:28.391Z,0.90
2019-01-27T07:04:12.077Z,0.90
2019-01-27T07:06:43.728Z,1.00
2019-01-27T07:09:14.817Z,1.10
2019-01-27T07:11:52.228Z,0.97
2019-01-27T07:14:23.299Z,0.93
2019-01-27T07:16:57.734Z,1.00
2019-01-27T07:19:26.197Z,1.00
2019-01-27T07:21:54.654Z,0.90
2019-01-27T07:24:29.927Z,0.97
2019-01-27T07:26:58.525Z,1.20
2019-01-27T07:29:43.406Z,1.00
2019-01-27T07:32:28.822Z,1.20
2019-01-27T07:34:57.274Z,1.13
2019-01-27T07:37:31.551Z,0.83
2019-01-27T07:40:18.159Z,1.20
2019-01-27T07:42:49.499Z,0.93
2019-01-27T07:45:18.780Z,0.90
2019-01-27T07:47:59.549Z,1.10
2019-01-27T07:50:43.004Z,0.97
2019-01-27T07:53:17.376Z,1.00
2019-01-27T07:55:48.504Z,0.80
2019-01-27T07:58:16.960Z,1.00
2019-01-27T08:00:48.280Z,1.17
2019-01-27T08:03:16.757Z,1.10
2019-01-27T08:05:45.614Z,0.87
2019-01-27T08:08:30.675Z,1.27
2019-01-27T08:11:15.983Z,1.40
2019-01-27T08:13:44.552Z,0.90
2019-01-27T08:16:13.011Z,0.90
2019-01-27T08:18:41.469Z,1.10
2019-01-27T08:21:09.915Z,1.20
2019-01-27T08:23:55.143Z,1.17
2019-01-27T08:26:26.560Z,0.93
2019-01-27T08:29:01.119Z,1.10
2019-01-27T08:31:32.256Z,1.00
2019-01-27T08:34:08.678Z,1.23
2019-01-27T08:36:40.049Z,1.00
2019-01-27T08:39:20.743Z,1.03
2019-01-27T08:41:49.186Z,1.07
2019-01-27T08:44:17.649Z,1.00
2019-01-27T08:46:46.422Z,1.43
2019-01-27T08:49:13.034Z,1.00
2019-01-27T08:51:39.571Z,1.10
2019-01-27T08:54:06.215Z,1.10
2019-01-27T08:56:32.775Z,0.93
2019-01-27T08:58:59.333Z,1.33
2019-01-27T09:01:27.789Z,0.97
2019-01-27T09:03:58.892Z,1.13
2019-01-27T09:06:36.587Z,1.30
2019-01-27T09:09:12.910Z,1.13
2019-01-27T09:11:41.354Z,1.17
2019-01-27T09:14:26.579Z,1.20
2019-01-27T09:16:58.032Z,1.43
2019-01-27T09:19:26.493Z,1.70
2019-01-27T09:22:01.456Z,1.60
2019-01-27T09:24:42.101Z,1.30
2019-01-27T09:27:16.467Z,1.50
2019-01-27T09:30:01.496Z,1.40
2019-01-27T09:32:29.939Z,1.50
2019-01-27T09:35:15.326Z,1.67
2019-01-27T09:37:46.839Z,1.37
2019-01-27T09:40:15.307Z,1.60
2019-01-27T09:42:46.407Z,1.33
2019-01-27T09:45:33.343Z,1.77
2019-01-27T09:48:04.422Z,1.50
2019-01-27T09:50:32.950Z,1.80
2019-01-27T09:53:04.283Z,1.60
2019-01-27T09:55:32.740Z,1.50
2019-01-27T09:58:07.392Z,1.83
2019-01-27T10:00:41.815Z,1.60
2019-01-27T10:03:25.254Z,1.50
2019-01-27T10:06:10.444Z,1.80
2019-01-27T10:08:45.014Z,1.73
2019-01-27T10:11:16.104Z,1.83
2019-01-27T10:13:56.410Z,1.57
2019-01-27T10:16:24.862Z,2.00
2019-01-27T10:19:02.259Z,1.83
2019-01-27T10:21:42.487Z,1.50
2019-01-27T10:24:13.820Z,1.70
2019-01-27T10:26:42.256Z,1.50
2019-01-27T10:29:10.688Z,1.63
2019-01-27T10:31:45.423Z,1.73
2019-01-27T10:34:13.876Z,1.50
2019-01-27T10:36:44.976Z,1.83
2019-01-27T10:39:25.379Z,1.60
2019-01-27T10:41:56.741Z,2.00
2019-01-27T10:44:25.206Z,1.63
2019-01-27T10:47:08.853Z,1.70
2019-01-27T10:49:46.421Z,1.90
2019-01-27T10:52:17.623Z,1.60
2019-01-27T10:54:46.131Z,2.50
2019-01-27T10:57:20.608Z,1.67
2019-01-27T11:00:05.088Z,1.33
2019-01-27T11:02:37.178Z,1.70
2019-01-27T11:05:22.684Z,1.40
2019-01-27T11:08:09.753Z,1.50
2019-01-27T11:10:47.367Z,1.20
2019-01-27T11:13:16.050Z,1.50
2019-01-27T11:15:44.531Z,1.40
2019-01-27T11:18:25.155Z,1.40
2019-01-27T11:20:55.731Z,1.30
2019-01-27T11:23:40.980Z,1.13
2019-01-27T11:26:18.383Z,1.30
2019-01-27T11:29:03.726Z,1.50
2019-01-27T11:31:50.250Z,1.40
2019-01-27T11:34:33.786Z,2.27
2019-01-27T11:37:11.223Z,1.60
2019-01-27T11:39:48.663Z,2.27
2019-01-27T11:42:22.813Z,1.90
2019-01-27T11:44:59.960Z,1.00
2019-01-27T11:47:28.482Z,1.50
2019-01-27T11:50:00.759Z,1.30
2019-01-27T11:52:27.353Z,1.20
2019-01-27T11:54:53.912Z,1.27
2019-01-27T11:57:20.528Z,1.30
2019-01-27T11:59:47.062Z,1.20
2019-01-27T12:02:13.628Z,1.30
2019-01-27T12:04:40.180Z,1.20
2019-01-27T12:07:06.754Z,1.17
2019-01-27T12:09:33.297Z,1.50
2019-01-27T12:11:59.848Z,1.63
2019-01-27T12:14:26.410Z,2.70
2019-01-27T12:16:52.968Z,1.07
2019-01-27T12:19:19.498Z,1.10
2019-01-27T12:21:46.046Z,0.90
2019-01-27T12:24:12.592Z,1.00
2019-01-27T12:26:39.138Z,1.73
2019-01-27T12:29:05.708Z,1.20
2019-01-27T12:31:32.297Z,3.40
2019-01-27T12:33:58.836Z,1.07
2019-01-27T12:36:25.423Z,1.00
2019-01-27T12:38:52.039Z,1.10
2019-01-27T12:41:18.595Z,1.43
2019-01-27T12:43:45.142Z,1.50
2019-01-27T12:46:11.725Z,1.57
2019-01-27T12:48:39.453Z,1.50
2019-01-27T12:51:06.076Z,1.30
2019-01-27T12:53:32.706Z,1.17
2019-01-27T12:55:59.252Z,1.13
2019-01-27T12:58:25.823Z,1.10
2019-01-27T13:00:53.267Z,1.10
2019-01-27T13:03:21.440Z,1.00
2019-01-27T13:05:48.282Z,1.00
2019-01-27T13:08:14.830Z,1.27
2019-01-27T13:10:41.390Z,1.30
2019-01-27T13:13:12.044Z,2.50
2019-01-27T13:15:36.403Z,1.40
2019-01-27T13:18:03.069Z,1.20
2019-01-27T13:20:29.636Z,1.10
2019-01-27T13:22:56.202Z,1.10
2019-01-27T13:25:22.746Z,1.07
2019-01-27T13:27:49.282Z,1.27
2019-01-27T13:30:18.070Z,1.20
2019-01-27T13:32:44.709Z,0.80
2019-01-27T13:35:11.460Z,1.20
2019-01-27T13:37:38.004Z,1.03
2019-01-27T13:40:06.538Z,1.00
2019-01-27T13:42:33.144Z,1.07
2019-01-27T13:44:59.707Z,1.10
2019-01-27T13:47:26.252Z,1.50
2019-01-27T13:49:52.808Z,0.97
2019-01-27T13:52:19.659Z,1.33
2019-01-27T13:54:46.202Z,0.77
2019-01-27T13:57:12.734Z,0.97
2019-01-27T13:59:39.279Z,1.10
2019-01-27T14:02:05.815Z,1.40
2019-01-27T14:04:32.383Z,0.80
2019-01-27T14:06:58.953Z,1.00
2019-01-27T14:09:25.518Z,1.00
2019-01-27T14:11:52.058Z,1.10
2019-01-27T14:14:18.603Z,1.67
2019-01-27T14:16:45.139Z,1.00
2019-01-27T14:19:11.689Z,1.43
2019-01-27T14:21:38.233Z,1.33
2019-01-27T14:24:04.782Z,1.20
2019-01-27T14:26:31.324Z,1.50
2019-01-27T14:28:57.867Z,2.03
2019-01-27T14:31:24.399Z,1.20
2019-01-27T14:33:50.943Z,1.47
2019-01-27T14:36:17.485Z,1.57
2019-01-27T14:38:44.031Z,1.07
2019-01-27T14:41:10.571Z,1.50
2019-01-27T14:43:37.123Z,1.50
2019-01-27T14:46:03.865Z,1.50
2019-01-27T14:48:30.404Z,1.33
2019-01-27T14:50:56.947Z,1.20
2019-01-27T14:53:23.486Z,1.17
2019-01-27T14:55:50.038Z,1.30
2019-01-27T14:58:16.568Z,1.10
2019-01-27T15:00:43.715Z,1.20
2019-01-27T15:03:10.661Z,1.20
2019-01-27T15:05:37.420Z,1.10
2019-01-27T15:08:04.164Z,1.20
2019-01-27T15:10:30.720Z,1.13
2019-01-27T15:12:57.263Z,1.33
2019-01-27T15:15:23.810Z,1.20
2019-01-27T15:17:50.353Z,1.30
2019-01-27T15:20:18.804Z,1.20
2019-01-27T15:22:45.446Z,1.20
2019-01-27T15:25:12.300Z,1.00
2019-01-27T15:27:38.835Z,1.20
2019-01-27T15:30:08.190Z,1.47
2019-01-27T15:32:34.731Z,1.17
2019-01-27T15:35:01.279Z,1.27
2019-01-27T15:37:27.923Z,1.10
2019-01-27T15:39:54.463Z,1.67
2019-01-27T15:42:21.040Z,1.50
2019-01-27T15:44:47.863Z,1.27
2019-01-27T15:47:14.416Z,1.13
2019-01-27T15:49:40.960Z,1.23
2019-01-27T15:52:07.507Z,1.40
2019-01-27T15:54:34.044Z,1.30
2019-01-27T15:57:00.593Z,1.47
2019-01-27T15:59:27.128Z,1.70
2019-01-27T16:01:53.676Z,1.67
2019-01-27T16:04:20.208Z,1.90
2019-01-27T16:06:46.774Z,1.20
2019-01-27T16:09:13.327Z,1.27
2019-01-27T16:11:39.964Z,1.27
2019-01-27T16:14:06.541Z,1.20
2019-01-27T16:16:33.090Z,1.40
2019-01-27T16:18:59.624Z,1.30
2019-01-27T16:21:26.670Z,1.23
2019-01-27T16:23:53.406Z,1.50
2019-01-27T16:26:20.001Z,1.10
2019-01-27T16:28:46.559Z,1.30
2019-01-27T16:31:27.661Z,1.10
2019-01-27T16:33:56.104Z,2.33
2019-01-27T16:36:23.172Z,1.43
2019-01-27T16:38:49.829Z,1.70
2019-01-27T16:41:16.439Z,1.17
2019-01-27T16:43:42.994Z,1.30
2019-01-27T16:46:09.545Z,1.17
2019-01-27T16:48:36.085Z,1.30
2019-01-27T16:51:03.188Z,1.30
2019-01-27T16:53:30.035Z,1.60
2019-01-27T16:55:56.585Z,1.30
2019-01-27T16:58:23.142Z,1.10
2019-01-27T17:00:49.948Z,1.10
2019-01-27T17:03:16.563Z,1.60
2019-01-27T17:05:43.117Z,1.17
2019-01-27T17:08:09.792Z,1.20
2019-01-27T17:10:36.328Z,1.03
2019-01-27T17:13:03.281Z,1.37
2019-01-27T17:15:29.815Z,1.50
2019-01-27T17:17:56.364Z,1.10
2019-01-27T17:20:25.863Z,1.00
2019-01-27T17:22:52.011Z,0.90
2019-01-27T17:25:18.667Z,1.30
2019-01-27T17:27:45.564Z,1.50
2019-01-27T17:32:41.055Z,1.50
2019-01-27T17:35:08.811Z,1.13
2019-01-27T17:37:35.373Z,1.10
2019-01-27T17:40:03.008Z,1.00
2019-01-27T17:42:29.563Z,1.20
2019-01-27T17:44:56.102Z,1.20
2019-01-27T17:47:22.762Z,1.00
2019-01-27T17:49:49.295Z,1.27
2019-01-27T17:52:15.871Z,1.03
2019-01-27T17:54:42.631Z,1.00
2019-01-27T17:57:11.113Z,1.47
2019-01-27T17:59:39.654Z,1.17
2019-01-27T18:02:08.178Z,1.00
2019-01-27T18:04:39.380Z,1.10
2019-01-27T18:07:07.859Z,1.27
2019-01-27T18:09:39.074Z,1.20
2019-01-27T18:12:10.143Z,1.37
2019-01-27T18:14:36.714Z,1.40
2019-01-27T18:17:03.375Z,1.37
2019-01-27T18:19:29.935Z,1.37
2019-01-27T18:21:56.568Z,2.60
2019-01-27T18:24:23.164Z,1.20
2019-01-27T18:26:49.776Z,1.37
2019-01-27T18:29:16.337Z,1.30
2019-01-27T18:31:42.967Z,1.57
2019-01-27T18:34:09.524Z,1.20
2019-01-27T18:36:36.221Z,1.20
2019-01-27T18:39:04.835Z,1.30
2019-01-27T18:41:31.500Z,1.43
2019-01-27T18:43:58.241Z,1.40
2019-01-27T18:46:25.057Z,1.20
2019-01-27T18:48:51.816Z,1.40
2019-01-27T18:51:18.510Z,1.90
2019-01-27T18:54:05.310Z,1.30
2019-01-27T18:56:37.085Z,1.30
2019-01-27T18:59:08.609Z,1.60
2019-01-27T19:01:52.380Z,1.63
2019-01-27T19:04:27.087Z,1.50
2019-01-27T19:07:12.155Z,1.83
2019-01-27T19:09:40.895Z,1.80
2019-01-27T19:12:09.408Z,1.60
2019-01-27T19:14:40.679Z,2.63
2019-01-27T19:17:24.214Z,1.60
2019-01-27T19:19:55.754Z,1.50
2019-01-27T19:22:24.341Z,2.10
2019-01-27T19:24:55.915Z,1.80
2019-01-27T19:27:30.166Z,1.80
2019-01-27T19:30:15.240Z,1.80
2019-01-27T19:33:00.388Z,1.83
2019-01-27T19:35:41.143Z,1.70
2019-01-27T19:38:27.823Z,1.90
2019-01-27T19:40:59.176Z,1.93
2019-01-27T19:43:30.622Z,2.30
2019-01-27T19:46:05.148Z,2.57
2019-01-27T19:48:36.320Z,3.10
2019-01-27T19:51:04.985Z,3.30
2019-01-27T19:53:33.561Z,2.10
2019-01-27T19:56:10.958Z,2.33
2019-01-27T19:58:39.581Z,2.27
2019-01-27T20:01:08.126Z,1.67
2019-01-27T20:03:42.670Z,1.40
2019-01-27T20:06:11.307Z,1.00
2019-01-27T20:08:39.844Z,1.37
2019-01-27T20:11:11.432Z,1.00
2019-01-27T20:13:49.089Z,1.17
2019-01-27T20:16:34.460Z,0.93
2019-01-27T20:19:03.115Z,0.67
2019-01-27T20:21:31.760Z,0.80
2019-01-27T20:24:03.329Z,1.00
2019-01-27T20:26:31.980Z,1.03
2019-01-27T20:29:03.413Z,0.80
2019-01-27T20:31:34.768Z,0.80
2019-01-27T20:34:21.478Z,0.70
2019-01-27T20:37:06.965Z,0.90
2019-01-27T20:39:35.616Z,0.90
2019-01-27T20:42:19.480Z,0.77
2019-01-27T20:44:54.065Z,1.33
2019-01-27T20:47:22.624Z,1.20
2019-01-27T20:49:57.083Z,0.90
2019-01-27T20:52:37.721Z,1.10
2019-01-27T20:55:10.108Z,1.10
2019-01-27T20:57:38.865Z,0.90
2019-01-27T21:00:12.188Z,1.30
2019-01-27T21:02:46.557Z,1.13
2019-01-27T21:05:15.103Z,1.30
2019-01-27T21:07:52.822Z,1.23
2019-01-27T21:10:24.103Z,1.80
2019-01-27T21:12:55.582Z,1.50
2019-01-27T21:15:30.002Z,1.40
2019-01-27T21:18:04.749Z,1.33
2019-01-27T21:20:31.601Z,1.30
2019-01-27T21:22:58.380Z,1.50
2019-01-27T21:25:25.098Z,1.20
2019-01-27T21:27:51.846Z,1.33
2019-01-27T21:30:18.688Z,1.10
2019-01-27T21:32:45.429Z,1.10
2019-01-27T21:35:12.240Z,1.43
2019-01-27T21:37:38.979Z,1.80
2019-01-27T21:40:07.558Z,1.40
2019-01-27T21:42:34.355Z,1.80
2019-01-27T21:45:01.073Z,1.70
2019-01-27T21:47:27.748Z,1.83
2019-01-27T21:49:54.822Z,1.73
2019-01-27T21:52:21.507Z,1.70
2019-01-27T21:54:48.128Z,1.90
2019-01-27T21:57:14.948Z,2.20
2019-01-27T21:59:41.645Z,2.00
2019-01-27T22:02:08.473Z,2.00
2019-01-27T22:04:35.218Z,1.60
2019-01-27T22:07:01.890Z,1.97
2019-01-27T22:09:28.550Z,2.00
2019-01-27T22:11:55.282Z,2.10
2019-01-27T22:14:21.939Z,1.90
2019-01-27T22:16:48.684Z,1.87
2019-01-27T22:19:15.454Z,1.70
2019-01-27T22:21:42.270Z,1.90
2019-01-27T22:24:08.946Z,1.60
2019-01-27T22:26:35.658Z,1.80
2019-01-27T22:29:02.622Z,1.80
2019-01-27T22:31:29.312Z,1.83
2019-01-27T22:33:56.144Z,1.50
2019-01-27T22:36:22.831Z,1.77
2019-01-27T22:38:49.545Z,1.90
2019-01-27T22:41:16.285Z,2.13
2019-01-27T22:43:42.930Z,1.87
2019-01-27T22:46:09.711Z,2.10
2019-01-27T22:48:36.572Z,2.13
2019-01-27T22:51:05.224Z,1.60
2019-01-27T22:53:32.128Z,2.37
2019-01-27T22:55:58.914Z,2.07
2019-01-27T22:58:25.769Z,2.73
2019-01-27T23:00:58.559Z,2.10
2019-01-27T23:03:25.562Z,2.77
2019-01-27T23:05:52.795Z,2.43
2019-01-27T23:08:19.677Z,2.47
2019-01-27T23:10:46.749Z,2.27
2019-01-27T23:13:13.509Z,3.00
2019-01-27T23:15:40.287Z,2.80
2019-01-27T23:18:06.990Z,2.80
2019-01-27T23:20:34.047Z,2.57
2019-01-27T23:23:00.709Z,2.77
2019-01-27T23:25:27.431Z,2.90
2019-01-27T23:27:54.413Z,3.00
2019-01-27T23:32:53.347Z,2.80
2019-01-27T23:35:19.909Z,3.07
2019-01-27T23:37:46.448Z,2.83
2019-01-27T23:40:12.999Z,3.00
2019-01-27T23:42:39.543Z,2.90
2019-01-27T23:45:08.003Z,2.27
2019-01-27T23:47:34.531Z,2.70
2019-01-27T23:50:01.092Z,2.67
2019-01-27T23:52:27.631Z,2.83
2019-01-27T23:54:54.184Z,3.23
2019-01-27T23:57:20.718Z,2.57
2019-01-27T23:59:47.279Z,2.83
